Terminal Aerodrome Forecast
Issued by NWS

Home | Current Version | Previous Version | Text Only | Print | Product List | Glossary Off
Versions: 1 2 3 4 5 6 7 8 9 10 11 12 13 14 15 16 17 18 19 20

034
FTUS43 KICT 281140
TAFSLN
TAF
KSLN 281140Z 2812/2912 16005KT P6SM OVC130
     FM281500 18013KT P6SM BKN050
     FM281700 19017G26KT P6SM SCT050 OVC150=

USA.gov is the U.S. government's official web portal to all federal, state and local government web resources and services.